createdAt,value
2018-10-03T00:00:20.237Z,101381.50
2018-10-03T00:02:50.362Z,101387.72
2018-10-03T00:05:20.463Z,101381.63
2018-10-03T00:07:50.689Z,101378.16
2018-10-03T00:10:20.757Z,101377.48
2018-10-03T00:12:50.960Z,101382.82
2018-10-03T00:15:21.045Z,101386.83
2018-10-03T00:17:51.692Z,101389.98
2018-10-03T00:20:21.810Z,101387.47
2018-10-03T00:22:51.894Z,101394.15
2018-10-03T00:25:32.666Z,101397.41
2018-10-03T00:28:14.955Z,101407.97
2018-10-03T00:30:57.153Z,101418.28
2018-10-03T00:33:37.249Z,101420.05
2018-10-03T00:36:20.485Z,101421.15
2018-10-03T00:39:05.276Z,101417.23
2018-10-03T00:41:45.849Z,101416.27
2018-10-03T00:44:27.361Z,101417.17
2018-10-03T00:47:08.332Z,101423.47
2018-10-03T00:49:50.578Z,101419.94
2018-10-03T00:52:32.581Z,101423.05
2018-10-03T00:55:12.436Z,101424.80
2018-10-03T00:57:53.954Z,101432.52
2018-10-03T01:00:32.730Z,101437.34
2018-10-03T01:03:11.388Z,101423.80
2018-10-03T01:05:51.567Z,101425.38
2018-10-03T01:08:21.985Z,101424.59
2018-10-03T01:10:52.174Z,101429.89
2018-10-03T01:13:22.286Z,101429.08
2018-10-03T01:15:52.537Z,101429.58
2018-10-03T01:18:22.600Z,101422.62
2018-10-03T01:20:52.755Z,101428.70
2018-10-03T01:23:22.843Z,101415.09
2018-10-03T01:25:52.974Z,101416.52
2018-10-03T01:28:23.040Z,101420.66
2018-10-03T01:30:53.131Z,101427.88
2018-10-03T01:33:23.213Z,101429.95
2018-10-03T01:35:53.324Z,101437.21
2018-10-03T01:38:23.392Z,101434.42
2018-10-03T01:40:53.502Z,101438.77
2018-10-03T01:43:30.932Z,101442.12
2018-10-03T01:46:10.657Z,101442.95
2018-10-03T01:48:48.714Z,101441.41
2018-10-03T01:51:18.994Z,101435.77
2018-10-03T01:53:49.073Z,101440.05
2018-10-03T01:56:19.227Z,101444.01
2018-10-03T01:58:57.127Z,101449.19
2018-10-03T02:01:36.707Z,101448.94
2018-10-03T02:04:17.229Z,101459.31
2018-10-03T02:06:56.121Z,101452.62
2018-10-03T02:09:36.449Z,101456.61
2018-10-03T02:12:14.432Z,101458.42
2018-10-03T02:14:52.463Z,101463.98
2018-10-03T02:17:31.068Z,101468.56
2018-10-03T02:20:12.338Z,101462.50
2018-10-03T02:22:50.165Z,101464.02
2018-10-03T02:25:29.375Z,101468.84
2018-10-03T02:28:08.064Z,101469.34
2018-10-03T02:30:47.450Z,101469.55
2018-10-03T02:33:25.553Z,101474.44
2018-10-03T02:36:03.695Z,101474.44
2018-10-03T02:38:41.706Z,101482.00
2018-10-03T02:41:22.601Z,101485.38
2018-10-03T02:44:02.114Z,101485.69
2018-10-03T02:46:40.090Z,101490.53
2018-10-03T02:49:19.284Z,101492.17
2018-10-03T02:51:58.037Z,101495.70
2018-10-03T02:54:40.094Z,101496.80
2018-10-03T02:57:22.297Z,101489.94
2018-10-03T02:59:59.991Z,101494.59
2018-10-03T03:02:39.127Z,101496.51
2018-10-03T03:05:17.272Z,101496.88
2018-10-03T03:07:54.861Z,101498.72
2018-10-03T03:10:33.120Z,101503.56
2018-10-03T03:13:10.857Z,101503.33
2018-10-03T03:15:51.425Z,101497.10
2018-10-03T03:18:31.782Z,101504.19
2018-10-03T03:21:10.681Z,101503.69
2018-10-03T03:23:50.549Z,101500.03
2018-10-03T03:26:30.010Z,101512.38
2018-10-03T03:29:11.423Z,101514.47
2018-10-03T03:31:50.099Z,101518.77
2018-10-03T03:34:28.283Z,101523.51
2018-10-03T03:37:07.810Z,101517.94
2018-10-03T03:39:46.161Z,101520.16
2018-10-03T03:45:10.947Z,101528.61
2018-10-03T03:47:41.209Z,101534.15
2018-10-03T03:50:19.317Z,101536.78
2018-10-03T03:52:57.961Z,101534.63
2018-10-03T03:55:37.865Z,101539.95
2018-10-03T03:58:08.437Z,101537.09
2018-10-03T04:00:38.499Z,101537.67
2018-10-03T04:03:08.599Z,101532.96
2018-10-03T04:05:38.686Z,101536.56
2018-10-03T04:08:08.924Z,101538.13
2018-10-03T04:10:39.008Z,101533.70
2018-10-03T04:13:09.114Z,101539.20
2018-10-03T04:15:39.251Z,101550.36
2018-10-03T04:18:12.432Z,101559.20
2018-10-03T04:20:42.454Z,101556.34
2018-10-03T04:23:12.549Z,101570.05
2018-10-03T04:25:42.609Z,101563.38
2018-10-03T04:28:12.692Z,101564.98
2018-10-03T04:30:42.774Z,101575.61
2018-10-03T04:33:12.924Z,101569.80
2018-10-03T04:35:43.216Z,101567.63
2018-10-03T04:38:13.203Z,101573.34
2018-10-03T04:40:43.276Z,101571.77
2018-10-03T04:43:13.365Z,101569.09
2018-10-03T04:45:43.385Z,101580.52
2018-10-03T04:48:13.514Z,101588.67
2018-10-03T04:50:43.568Z,101580.50
2018-10-03T04:53:13.669Z,101581.97
2018-10-03T04:55:43.695Z,101590.72
2018-10-03T04:58:13.912Z,101588.38
2018-10-03T05:00:43.982Z,101589.53
2018-10-03T05:03:14.083Z,101602.39
2018-10-03T05:05:44.153Z,101606.55
2018-10-03T05:08:14.260Z,101606.91
2018-10-03T05:10:44.372Z,101610.04
2018-10-03T05:13:14.435Z,101615.55
2018-10-03T05:15:44.486Z,101608.77
2018-10-03T05:18:14.568Z,101606.32
2018-10-03T05:20:44.700Z,101612.81
2018-10-03T05:23:14.820Z,101610.97
2018-10-03T05:25:44.921Z,101613.18
2018-10-03T05:28:15.054Z,101617.70
2018-10-03T05:30:45.177Z,101619.28
2018-10-03T05:33:15.364Z,101626.59
2018-10-03T05:35:45.360Z,101640.86
2018-10-03T05:38:15.477Z,101641.94
2018-10-03T05:40:45.591Z,101646.97
2018-10-03T05:43:15.767Z,101645.92
2018-10-03T05:45:45.872Z,101645.67
2018-10-03T05:48:16.001Z,101647.20
2018-10-03T05:50:46.048Z,101653.19
2018-10-03T05:53:16.151Z,101650.58
2018-10-03T05:55:46.239Z,101662.78
2018-10-03T05:58:16.288Z,101673.87
2018-10-03T06:00:46.391Z,101679.02
2018-10-03T06:03:16.537Z,101674.00
2018-10-03T06:05:46.632Z,101677.63
2018-10-03T06:08:16.770Z,101676.28
2018-10-03T06:10:46.888Z,101675.23
2018-10-03T06:13:17.011Z,101679.38
2018-10-03T06:15:47.145Z,101673.91
2018-10-03T06:18:17.246Z,101681.48
2018-10-03T06:20:47.330Z,101681.69
2018-10-03T06:23:17.425Z,101690.43
2018-10-03T06:25:48.685Z,101699.74
2018-10-03T06:28:19.025Z,101696.51
2018-10-03T06:30:49.095Z,101700.63
2018-10-03T06:33:20.474Z,101705.88
2018-10-03T06:35:52.736Z,101712.41
2018-10-03T06:38:22.893Z,101718.05
2018-10-03T06:40:53.030Z,101725.51
2018-10-03T06:43:23.246Z,101722.06
2018-10-03T06:45:58.968Z,101719.91
2018-10-03T06:48:36.068Z,101723.33
2018-10-03T06:51:13.544Z,101736.45
2018-10-03T06:53:50.253Z,101740.14
2018-10-03T06:56:27.733Z,101741.03
2018-10-03T06:59:05.471Z,101751.39
2018-10-03T07:01:43.149Z,101762.17
2018-10-03T07:04:29.443Z,101764.98
2018-10-03T07:07:07.170Z,101769.66
2018-10-03T07:09:44.215Z,101782.67
2018-10-03T07:12:21.431Z,101783.73
2018-10-03T07:15:01.764Z,101790.54
2018-10-03T07:17:42.234Z,101790.47
2018-10-03T07:20:23.166Z,101801.64
2018-10-03T07:23:04.149Z,101805.17
2018-10-03T07:25:46.125Z,101813.50
2018-10-03T07:28:31.749Z,101815.31
2018-10-03T07:31:10.014Z,101820.25
2018-10-03T07:33:48.426Z,101825.01
2018-10-03T07:36:27.846Z,101824.59
2018-10-03T07:39:09.972Z,101829.60
2018-10-03T07:41:54.042Z,101835.23
2018-10-03T07:44:33.510Z,101835.70
2018-10-03T07:47:14.067Z,101834.34
2018-10-03T07:49:53.307Z,101842.43
2018-10-03T07:52:30.520Z,101848.18
2018-10-03T07:55:09.968Z,101862.36
2018-10-03T07:57:55.522Z,101856.70
2018-10-03T08:00:36.207Z,101867.23
2018-10-03T08:03:22.646Z,101872.22
2018-10-03T08:06:05.820Z,101877.66
2018-10-03T08:08:47.401Z,101876.80
2018-10-03T08:11:28.112Z,101876.59
2018-10-03T08:14:09.569Z,101878.64
2018-10-03T08:16:53.648Z,101876.83
2018-10-03T08:19:23.906Z,101879.24
2018-10-03T08:21:54.131Z,101876.19
2018-10-03T08:24:24.268Z,101877.27
2018-10-03T08:26:54.318Z,101877.20
2018-10-03T08:29:24.454Z,101882.78
2018-10-03T08:31:54.500Z,101880.70
2018-10-03T08:34:24.675Z,101882.30
2018-10-03T08:36:54.680Z,101884.30
2018-10-03T08:39:24.826Z,101889.27
2018-10-03T08:41:54.876Z,101892.05
2018-10-03T08:44:24.970Z,101897.86
2018-10-03T08:46:55.092Z,101898.50
2018-10-03T08:49:25.243Z,101902.36
2018-10-03T08:51:55.439Z,101900.91
2018-10-03T08:54:25.575Z,101901.13
2018-10-03T08:56:55.750Z,101910.91
2018-10-03T08:59:25.928Z,101904.83
2018-10-03T09:01:55.993Z,101909.83
2018-10-03T09:04:26.195Z,101917.94
2018-10-03T09:06:56.260Z,101919.31
2018-10-03T09:09:26.398Z,101917.20
2018-10-03T09:11:56.468Z,101915.88
2018-10-03T09:14:26.581Z,101921.44
2018-10-03T09:16:56.632Z,101920.26
2018-10-03T09:19:26.991Z,101921.59
2018-10-03T09:21:57.130Z,101929.16
2018-10-03T09:24:27.285Z,101931.54
2018-10-03T09:26:57.338Z,101942.83
2018-10-03T09:29:27.593Z,101944.58
2018-10-03T09:31:58.063Z,101942.14
2018-10-03T09:34:28.910Z,101947.07
2018-10-03T09:36:59.064Z,101948.93
2018-10-03T09:39:29.431Z,101938.59
2018-10-03T09:41:59.579Z,101950.73
2018-10-03T09:44:32.442Z,101951.95
2018-10-03T09:47:03.090Z,101968.77
2018-10-03T09:49:33.236Z,101972.44
2018-10-03T09:52:03.476Z,101973.08
2018-10-03T09:54:33.713Z,101976.37
2018-10-03T09:57:04.082Z,101977.42
2018-10-03T09:59:34.248Z,101980.25
2018-10-03T10:02:04.378Z,101983.70
2018-10-03T10:04:34.530Z,101988.77
2018-10-03T10:07:04.608Z,101982.33
2018-10-03T10:09:34.759Z,101981.34
2018-10-03T10:12:04.859Z,101991.72
2018-10-03T10:14:35.113Z,101972.24
2018-10-03T10:17:05.262Z,101982.80
2018-10-03T10:19:35.613Z,101974.98
2018-10-03T10:22:05.738Z,101985.69
2018-10-03T10:24:35.892Z,101987.92
2018-10-03T10:27:06.041Z,101988.77
2018-10-03T10:29:36.364Z,101985.70
2018-10-03T10:32:06.518Z,101999.54
2018-10-03T10:34:36.691Z,101998.41
2018-10-03T10:37:06.913Z,101996.74
2018-10-03T10:39:37.142Z,102000.00
2018-10-03T10:42:07.224Z,102005.48
2018-10-03T10:44:37.456Z,102007.89
2018-10-03T10:47:07.734Z,102009.22
2018-10-03T10:49:37.862Z,102017.34
2018-10-03T10:52:08.022Z,102024.52
2018-10-03T10:54:38.229Z,102026.37
2018-10-03T10:57:08.380Z,102031.17
2018-10-03T10:59:38.581Z,102026.27
2018-10-03T11:02:08.698Z,102028.50
2018-10-03T11:04:38.967Z,102037.04
2018-10-03T11:07:09.533Z,102033.50
2018-10-03T11:09:39.860Z,102033.58
2018-10-03T11:12:10.132Z,102030.31
2018-10-03T11:14:40.285Z,102034.05
2018-10-03T11:17:10.496Z,102032.97
2018-10-03T11:19:40.801Z,102033.95
2018-10-03T11:22:11.595Z,102023.13
2018-10-03T11:24:41.965Z,102029.59
2018-10-03T11:27:11.971Z,102034.91
2018-10-03T11:29:42.183Z,102033.68
2018-10-03T11:32:12.543Z,102033.44
2018-10-03T11:34:42.954Z,102028.06
2018-10-03T11:37:13.207Z,102028.36
2018-10-03T11:39:43.750Z,102034.08
2018-10-03T11:42:14.105Z,102033.57
2018-10-03T11:44:44.627Z,102036.09
2018-10-03T11:47:14.702Z,102033.09
2018-10-03T11:49:44.843Z,102032.20
2018-10-03T11:52:14.993Z,102021.56
2018-10-03T11:54:45.129Z,102030.27
2018-10-03T11:57:15.291Z,102025.95
2018-10-03T11:59:45.515Z,102022.21
2018-10-03T12:02:15.701Z,102020.95
2018-10-03T12:04:45.851Z,102024.66
2018-10-03T12:07:15.902Z,102031.02
2018-10-03T12:09:46.045Z,102022.21
2018-10-03T12:12:16.351Z,102033.03
2018-10-03T12:14:46.504Z,102031.09
2018-10-03T12:17:16.801Z,102029.03
2018-10-03T12:19:46.934Z,102032.06
2018-10-03T12:22:17.046Z,102026.78
2018-10-03T12:24:47.144Z,102028.89
2018-10-03T12:27:17.273Z,102027.83
2018-10-03T12:29:47.423Z,102031.14
2018-10-03T12:32:18.312Z,102024.19
2018-10-03T12:34:48.599Z,102022.52
2018-10-03T12:37:18.668Z,102009.73
2018-10-03T12:39:48.834Z,102009.98
2018-10-03T12:42:18.936Z,102016.03
2018-10-03T12:44:49.079Z,102010.63
2018-10-03T12:47:19.163Z,102019.20
2018-10-03T12:49:49.269Z,102020.72
2018-10-03T12:52:19.457Z,102027.17
2018-10-03T12:54:49.618Z,102030.64
2018-10-03T12:57:19.715Z,102040.47
2018-10-03T12:59:49.832Z,102035.17
2018-10-03T13:02:19.967Z,102027.86
2018-10-03T13:04:50.113Z,102026.57
2018-10-03T13:07:20.219Z,102027.22
2018-10-03T13:09:50.335Z,102035.28
2018-10-03T13:12:20.450Z,102026.73
2018-10-03T13:14:50.624Z,102028.77
2018-10-03T13:17:20.685Z,102029.66
2018-10-03T13:19:50.779Z,102023.09
2018-10-03T13:22:20.857Z,102026.05
2018-10-03T13:24:51.376Z,102017.84
2018-10-03T13:27:21.734Z,102022.67
2018-10-03T13:29:51.927Z,102012.41
2018-10-03T13:32:22.041Z,102011.38
2018-10-03T13:34:52.197Z,102016.00
2018-10-03T13:37:22.282Z,102013.36
2018-10-03T13:39:52.628Z,102012.27
2018-10-03T13:42:22.732Z,102013.74
2018-10-03T13:44:52.877Z,102016.46
2018-10-03T13:47:23.347Z,102008.15
2018-10-03T13:49:53.770Z,102012.02
2018-10-03T13:52:23.860Z,102014.05
2018-10-03T13:54:54.038Z,102011.66
2018-10-03T13:57:24.204Z,102005.66
2018-10-03T13:59:54.388Z,102012.06
2018-10-03T14:02:24.506Z,102017.66
2018-10-03T14:04:54.720Z,102016.56
2018-10-03T14:07:24.848Z,102016.81
2018-10-03T14:09:54.981Z,102026.52
2018-10-03T14:12:25.172Z,102025.20
2018-10-03T14:14:55.461Z,102029.66
2018-10-03T14:17:26.304Z,102024.50
2018-10-03T14:19:56.418Z,102028.06
2018-10-03T14:22:26.481Z,102031.58
2018-10-03T14:24:56.670Z,102022.00
2018-10-03T14:27:26.898Z,102016.19
2018-10-03T14:29:57.066Z,102018.44
2018-10-03T14:32:27.188Z,102014.23
2018-10-03T14:34:57.529Z,102015.42
2018-10-03T14:37:27.615Z,102022.25
2018-10-03T14:39:57.841Z,102021.51
2018-10-03T14:42:28.041Z,102011.67
2018-10-03T14:44:58.235Z,102020.39
2018-10-03T14:47:28.451Z,102013.22
2018-10-03T14:49:58.536Z,102010.95
2018-10-03T14:52:28.812Z,102001.75
2018-10-03T14:54:58.933Z,102011.22
2018-10-03T14:57:29.050Z,102009.47
2018-10-03T14:59:59.159Z,102007.22
2018-10-03T15:02:30.819Z,102008.81
2018-10-03T15:05:00.924Z,102008.23
2018-10-03T15:07:31.122Z,102011.70
2018-10-03T15:10:01.211Z,102013.09
2018-10-03T15:12:31.478Z,102017.22
2018-10-03T15:15:01.749Z,102019.59
2018-10-03T15:17:31.859Z,102015.91
2018-10-03T15:20:02.155Z,102012.58
2018-10-03T15:22:32.319Z,102012.11
2018-10-03T15:25:02.481Z,102019.79
2018-10-03T15:27:32.811Z,102017.95
2018-10-03T15:30:03.037Z,102021.02
2018-10-03T15:32:33.202Z,102020.12
2018-10-03T15:35:03.353Z,102026.00
2018-10-03T15:37:33.537Z,102019.23
2018-10-03T15:40:03.834Z,102021.23
2018-10-03T15:42:33.960Z,102022.40
2018-10-03T15:45:04.142Z,102018.42
2018-10-03T15:47:34.337Z,102023.19
2018-10-03T15:50:04.718Z,102027.73
2018-10-03T15:52:34.870Z,102017.47
2018-10-03T15:55:05.249Z,102019.22
2018-10-03T15:57:35.332Z,102016.20
2018-10-03T16:00:06.014Z,102016.68
2018-10-03T16:02:36.121Z,102019.02
2018-10-03T16:05:06.425Z,102018.88
2018-10-03T16:07:36.939Z,102023.70
2018-10-03T16:10:07.206Z,102026.22
2018-10-03T16:12:37.577Z,102027.87
2018-10-03T16:15:08.040Z,102031.85
2018-10-03T16:17:38.564Z,102037.77
2018-10-03T16:20:08.888Z,102040.37
2018-10-03T16:22:39.031Z,102044.13
2018-10-03T16:25:09.331Z,102053.16
2018-10-03T16:27:39.527Z,102044.77
2018-10-03T16:30:09.804Z,102041.59
2018-10-03T16:32:40.190Z,102046.95
2018-10-03T16:35:10.481Z,102052.27
2018-10-03T16:37:40.723Z,102054.63
2018-10-03T16:40:11.081Z,102058.03
2018-10-03T16:42:41.640Z,102057.64
2018-10-03T16:45:12.081Z,102061.72
2018-10-03T16:47:42.332Z,102066.39
2018-10-03T16:50:12.742Z,102068.66
2018-10-03T16:52:42.958Z,102067.75
2018-10-03T16:55:13.049Z,102077.34
2018-10-03T16:57:43.202Z,102076.56
2018-10-03T17:00:14.328Z,102082.39
2018-10-03T17:02:44.691Z,102093.14
2018-10-03T17:05:14.886Z,102081.70
2018-10-03T17:07:45.013Z,102091.42
2018-10-03T17:10:15.265Z,102093.72
2018-10-03T17:12:45.479Z,102098.95
2018-10-03T17:15:15.686Z,102100.27
2018-10-03T17:17:45.778Z,102103.61
2018-10-03T17:20:16.091Z,102104.97
2018-10-03T17:22:46.250Z,102119.53
2018-10-03T17:25:16.457Z,102114.73
2018-10-03T17:27:46.791Z,102120.23
2018-10-03T17:30:16.950Z,102124.38
2018-10-03T17:32:47.098Z,102124.51
2018-10-03T17:35:17.244Z,102128.55
2018-10-03T17:37:47.533Z,102131.83
2018-10-03T17:40:17.666Z,102126.62
2018-10-03T17:42:47.884Z,102128.34
2018-10-03T17:45:18.014Z,102136.30
2018-10-03T17:47:48.125Z,102137.95
2018-10-03T17:50:18.253Z,102142.77
2018-10-03T17:52:48.707Z,102150.69
2018-10-03T17:55:18.869Z,102146.86
2018-10-03T17:57:49.866Z,102151.35
2018-10-03T18:00:20.109Z,102151.28
2018-10-03T18:02:50.235Z,102147.45
2018-10-03T18:05:20.421Z,102150.75
2018-10-03T18:07:50.584Z,102151.30
2018-10-03T18:10:23.610Z,102149.22
2018-10-03T18:12:53.857Z,102158.95
2018-10-03T18:15:24.057Z,102155.89
2018-10-03T18:17:54.272Z,102157.34
2018-10-03T18:20:24.474Z,102154.37
2018-10-03T18:22:54.669Z,102154.86
2018-10-03T18:25:24.851Z,102155.76
2018-10-03T18:27:54.990Z,102158.41
2018-10-03T18:30:25.135Z,102158.82
2018-10-03T18:32:55.267Z,102159.55
2018-10-03T18:35:26.194Z,102161.94
2018-10-03T18:37:56.462Z,102162.15
2018-10-03T18:40:26.732Z,102159.22
2018-10-03T18:42:56.941Z,102157.30
2018-10-03T18:45:27.067Z,102165.04
2018-10-03T18:47:57.264Z,102161.84
2018-10-03T18:50:27.364Z,102164.40
2018-10-03T18:52:57.515Z,102163.89
2018-10-03T18:55:27.907Z,102163.72
2018-10-03T18:57:58.281Z,102167.09
2018-10-03T19:00:28.853Z,102160.35
2018-10-03T19:02:58.972Z,102169.41
2018-10-03T19:05:29.276Z,102156.95
2018-10-03T19:07:59.490Z,102165.13
2018-10-03T19:10:29.718Z,102160.06
2018-10-03T19:12:59.968Z,102162.88
2018-10-03T19:15:30.098Z,102166.13
2018-10-03T19:18:00.314Z,102175.11
2018-10-03T19:20:30.619Z,102177.49
2018-10-03T19:23:00.716Z,102175.87
2018-10-03T19:25:30.831Z,102179.50
2018-10-03T19:28:01.217Z,102182.73
2018-10-03T19:30:31.354Z,102181.75
2018-10-03T19:33:01.381Z,102180.89
2018-10-03T19:35:31.526Z,102172.58
2018-10-03T19:38:01.604Z,102180.56
2018-10-03T19:40:31.740Z,102184.12
2018-10-03T19:43:01.846Z,102185.57
2018-10-03T19:45:31.978Z,102186.97
2018-10-03T19:48:02.091Z,102191.97
2018-10-03T19:50:32.181Z,102195.56
2018-10-03T19:53:02.359Z,102192.02
2018-10-03T19:55:35.545Z,102192.53
2018-10-03T19:58:05.769Z,102184.69
2018-10-03T20:00:35.915Z,102187.45
2018-10-03T20:03:06.150Z,102181.28
2018-10-03T20:05:36.515Z,102180.55
2018-10-03T20:08:06.714Z,102185.46
2018-10-03T20:10:36.947Z,102185.06
2018-10-03T20:13:07.141Z,102189.48
2018-10-03T20:15:37.606Z,102190.40
2018-10-03T20:18:07.867Z,102190.91
2018-10-03T20:20:38.074Z,102197.05
2018-10-03T20:23:08.386Z,102196.57
2018-10-03T20:25:38.500Z,102200.47
2018-10-03T20:28:08.621Z,102202.30
2018-10-03T20:30:38.713Z,102214.14
2018-10-03T20:33:08.873Z,102204.12
2018-10-03T20:35:39.551Z,102204.13
2018-10-03T20:38:09.878Z,102204.13
2018-10-03T20:40:40.389Z,102207.25
2018-10-03T20:43:10.716Z,102214.30
2018-10-03T20:45:41.206Z,102214.80
2018-10-03T20:48:11.597Z,102215.56
2018-10-03T20:50:41.936Z,102212.52
2018-10-03T20:53:12.313Z,102219.09
2018-10-03T20:55:42.609Z,102215.91
2018-10-03T20:58:12.785Z,102213.45
2018-10-03T21:00:43.055Z,102213.37
2018-10-03T21:03:13.239Z,102217.63
2018-10-03T21:05:43.444Z,102212.29
2018-10-03T21:08:13.791Z,102217.45
2018-10-03T21:10:44.026Z,102214.88
2018-10-03T21:13:14.093Z,102215.83
2018-10-03T21:15:44.353Z,102218.48
2018-10-03T21:18:14.583Z,102220.82
2018-10-03T21:20:44.766Z,102228.38
2018-10-03T21:23:15.068Z,102222.38
2018-10-03T21:25:45.370Z,102218.44
2018-10-03T21:28:15.597Z,102221.59
2018-10-03T21:30:45.919Z,102218.08
2018-10-03T21:33:16.207Z,102216.78
2018-10-03T21:35:46.433Z,102220.42
2018-10-03T21:38:16.693Z,102222.70
2018-10-03T21:40:46.851Z,102223.20
2018-10-03T21:43:17.026Z,102225.47
2018-10-03T21:45:47.374Z,102225.92
2018-10-03T21:48:17.525Z,102227.28
2018-10-03T21:50:47.823Z,102229.05
2018-10-03T21:53:17.967Z,102225.66
2018-10-03T21:55:48.270Z,102230.55
2018-10-03T21:58:18.429Z,102230.95
2018-10-03T22:00:55.899Z,102229.70
2018-10-03T22:03:26.516Z,102230.19
2018-10-03T22:05:56.750Z,102233.72
2018-10-03T22:08:27.189Z,102238.97
2018-10-03T22:10:57.558Z,102235.03
2018-10-03T22:13:27.749Z,102232.89
2018-10-03T22:15:58.169Z,102235.56
2018-10-03T22:18:28.443Z,102232.97
2018-10-03T22:20:58.862Z,102235.61
2018-10-03T22:23:29.179Z,102236.47
2018-10-03T22:25:59.339Z,102242.14
2018-10-03T22:28:29.609Z,102240.82
2018-10-03T22:31:00.145Z,102239.51
2018-10-03T22:33:30.269Z,102236.88
2018-10-03T22:36:00.399Z,102239.55
2018-10-03T22:38:30.479Z,102240.00
2018-10-03T22:41:00.579Z,102233.84
2018-10-03T22:43:30.642Z,102239.47
2018-10-03T22:46:00.845Z,102242.88
2018-10-03T22:48:30.974Z,102232.33
2018-10-03T22:51:01.099Z,102234.05
2018-10-03T22:53:31.202Z,102229.23
2018-10-03T22:56:01.258Z,102231.87
2018-10-03T22:58:31.394Z,102224.80
2018-10-03T23:01:01.577Z,102226.61
2018-10-03T23:03:31.675Z,102225.34
2018-10-03T23:06:01.763Z,102227.59
2018-10-03T23:08:31.789Z,102231.53
2018-10-03T23:11:01.922Z,102234.62
2018-10-03T23:13:32.042Z,102232.89
2018-10-03T23:16:02.143Z,102229.48
2018-10-03T23:18:32.242Z,102223.41
2018-10-03T23:21:02.349Z,102225.62
2018-10-03T23:23:32.453Z,102229.56
2018-10-03T23:26:02.616Z,102226.03
2018-10-03T23:28:32.724Z,102229.89
2018-10-03T23:31:02.791Z,102235.52
2018-10-03T23:33:32.882Z,102231.01
2018-10-03T23:36:03.083Z,102224.30
2018-10-03T23:38:33.200Z,102227.61
2018-10-03T23:41:03.313Z,102228.38
2018-10-03T23:43:33.408Z,102232.66
2018-10-03T23:46:03.512Z,102231.13
2018-10-03T23:48:33.587Z,102227.52
2018-10-03T23:51:03.694Z,102230.05
2018-10-03T23:53:33.794Z,102219.46
2018-10-03T23:56:03.866Z,102219.97
2018-10-03T23:58:33.935Z,102218.77
